Time;durP1;ratioP1;P1;durP2;ratioP2;P2;SDS_P1;SDS_P2;PMS_P1;PMS_P2;Temp;Humidity;BMP_temperature;BMP_pressure;BME280_temperature;BME280_humidity;BME280_pressure;Samples;Min_cycle;Max_cycle;Signal;HPM_P1;HPM_P2
2023/10/15 00:02:26;;;;;;;5.75;2.22;;;;;;;;;;4937494;29;20078;-79
2023/10/15 00:05:12;;;;;;;4.70;2.40;;;;;;;;;;4936663;29;20508;-81
2023/10/15 00:07:58;;;;;;;8.60;2.53;;;;;;;;;;4966166;28;20034;-80
2023/10/15 00:10:43;;;;;;;5.43;1.83;;;;;;;;;;4929115;28;20154;-79
2023/10/15 00:13:28;;;;;;;5.38;1.85;;;;;;;;;;4952472;28;20053;-79
2023/10/15 00:16:17;;;;;;;8.23;2.47;;;;;;;;;;4953185;29;20485;-80
2023/10/15 00:19:12;;;;;;;6.32;2.60;;;;;;;;;;4938198;29;20035;-80
2023/10/15 00:22:02;;;;;;;8.57;1.95;;;;;;;;;;4952187;28;20031;-81
2023/10/15 00:24:47;;;;;;;;;;;;;;;;;;4938912;28;20558;-81
2023/10/15 00:27:32;;;;;;;7.22;2.00;;;;;;;;;;4948529;29;19910;-81
2023/10/15 00:30:19;;;;;;;5.30;1.73;;;;;;;;;;4934285;28;20035;-81
2023/10/15 00:33:06;;;;;;;6.57;1.80;;;;;;;;;;4938722;29;20481;-81
2023/10/15 00:35:55;;;;;;;5.22;1.67;;;;;;;;;;4926774;28;20111;-80
2023/10/15 00:38:46;;;;;;;3.72;1.63;;;;;;;;;;4939571;29;20058;-80
2023/10/15 00:41:31;;;;;;;4.50;2.13;;;;;;;;;;4945853;29;20039;-80
2023/10/15 00:44:16;;;;;;;10.05;2.40;;;;;;;;;;4947665;28;20019;-80
2023/10/15 00:47:03;;;;;;;2.78;1.50;;;;;;;;;;4940390;29;20023;-81
2023/10/15 00:49:48;;;;;;;5.53;2.17;;;;;;;;;;4948598;28;20026;-79
2023/10/15 00:52:37;;;;;;;8.40;1.70;;;;;;;;;;4950734;28;20105;-79
2023/10/15 00:55:23;;;;;;;4.70;1.80;;;;;;;;;;4950605;28;20034;-80
2023/10/15 00:58:09;;;;;;;4.85;1.80;;;;;;;;;;4934818;29;20030;-79
2023/10/15 01:00:57;;;;;;;5.50;1.92;;;;;;;;;;4937528;28;20568;-79
2023/10/15 01:03:48;;;;;;;3.30;1.60;;;;;;;;;;4936557;29;20035;-80
2023/10/15 01:09:27;;;;;;;4.70;1.63;;;;;;;;;;4938553;29;20023;-79
2023/10/15 01:12:24;;;;;;;4.53;1.88;;;;;;;;;;4934489;29;20034;-79
2023/10/15 01:15:10;;;;;;;6.10;2.15;;;;;;;;;;4937701;28;20385;-79
2023/10/15 01:18:06;;;;;;;4.85;1.50;;;;;;;;;;4942899;29;20050;-80
2023/10/15 01:20:51;;;;;;;5.68;2.03;;;;;;;;;;4934226;29;20397;-81
2023/10/15 01:23:58;;;;;;;8.05;2.15;;;;;;;;;;4937681;29;20394;-81
2023/10/15 01:26:45;;;;;;;3.33;1.40;;;;;;;;;;4950747;28;20554;-81
2023/10/15 01:29:34;;;;;;;6.75;1.70;;;;;;;;;;4934368;28;20046;-81
2023/10/15 01:32:20;;;;;;;8.02;1.52;;;;;;;;;;4949362;28;20058;-79
2023/10/15 01:35:10;;;;;;;3.97;1.48;;;;;;;;;;4946264;29;20110;-79
2023/10/15 01:38:09;;;;;;;4.60;2.00;;;;;;;;;;4962822;28;20039;-80
2023/10/15 01:40:56;;;;;;;3.50;1.75;;;;;;;;;;4933462;28;20075;-79
2023/10/15 01:43:46;;;;;;;5.13;1.33;;;;;;;;;;4935794;29;20516;-79
2023/10/15 01:49:32;;;;;;;7.60;2.78;;;;;;;;;;4950605;29;20046;-79
2023/10/15 01:52:29;;;;;;;2.70;1.60;;;;;;;;;;4932222;29;20031;-80
2023/10/15 01:55:17;;;;;;;8.90;1.58;;;;;;;;;;4954431;28;20031;-80
2023/10/15 01:58:04;;;;;;;7.22;1.88;;;;;;;;;;4937209;29;20034;-79
2023/10/15 02:00:50;;;;;;;6.13;2.05;;;;;;;;;;4936104;29;20466;-80
2023/10/15 02:03:37;;;;;;;3.85;1.52;;;;;;;;;;4934459;29;20034;-79
2023/10/15 02:06:22;;;;;;;5.20;1.55;;;;;;;;;;4937202;29;20113;-80
2023/10/15 02:09:11;;;;;;;3.58;1.30;;;;;;;;;;4942379;29;20038;-80
2023/10/15 02:11:57;;;;;;;4.75;1.58;;;;;;;;;;4925674;29;20065;-80
2023/10/15 02:14:43;;;;;;;5.22;1.58;;;;;;;;;;4936785;29;20027;-79
2023/10/15 02:17:33;;;;;;;7.82;2.15;;;;;;;;;;4945069;29;20094;-79
2023/10/15 02:20:42;;;;;;;3.05;1.92;;;;;;;;;;4949581;28;20351;-80
2023/10/15 02:23:27;;;;;;;4.13;1.65;;;;;;;;;;4933477;29;20031;-79
2023/10/15 02:26:13;;;;;;;3.20;1.65;;;;;;;;;;4934911;28;20401;-80
2023/10/15 02:29:07;;;;;;;5.38;1.50;;;;;;;;;;4937245;29;20027;-80
2023/10/15 02:31:52;;;;;;;10.77;2.72;;;;;;;;;;4935141;29;20027;-80
2023/10/15 02:34:40;;;;;;;2.55;1.50;;;;;;;;;;4934904;29;20031;-81
2023/10/15 02:37:28;;;;;;;2.35;1.55;;;;;;;;;;4937047;29;20039;-81
2023/10/15 02:40:17;;;;;;;3.60;1.58;;;;;;;;;;4936459;29;20027;-81
2023/10/15 02:43:06;;;;;;;3.00;1.50;;;;;;;;;;4943315;28;20425;-81
2023/10/15 02:45:51;;;;;;;4.65;1.65;;;;;;;;;;4946633;29;20045;-81
2023/10/15 02:48:41;;;;;;;3.55;1.50;;;;;;;;;;4940828;29;20027;-81
2023/10/15 02:51:26;;;;;;;;;;;;;;;;;;4966523;28;20058;-82
2023/10/15 02:54:27;;;;;;;7.53;1.70;;;;;;;;;;4938481;29;19928;-80
2023/10/15 02:57:16;;;;;;;8.55;2.42;;;;;;;;;;4940843;29;20027;-80
2023/10/15 03:00:12;;;;;;;4.03;1.40;;;;;;;;;;4962643;28;20035;-81
2023/10/15 03:02:57;;;;;;;5.05;1.90;;;;;;;;;;4937126;29;20476;-79
2023/10/15 03:05:46;;;;;;;4.65;1.38;;;;;;;;;;4938204;29;20011;-79
2023/10/15 03:08:33;;;;;;;2.75;1.27;;;;;;;;;;4944082;29;20035;-79
2023/10/15 03:11:22;;;;;;;4.80;1.23;;;;;;;;;;4945062;28;20026;-79
2023/10/15 03:14:07;;;;;;;3.78;1.20;;;;;;;;;;4941572;29;20162;-79
2023/10/15 03:16:56;;;;;;;6.05;1.73;;;;;;;;;;4944436;29;20047;-80
2023/10/15 03:19:42;;;;;;;2.45;1.30;;;;;;;;;;4932838;29;20031;-79
2023/10/15 03:22:30;;;;;;;3.25;1.65;;;;;;;;;;4935881;28;20144;-80
2023/10/15 03:25:16;;;;;;;3.83;1.30;;;;;;;;;;4951277;29;20034;-79
2023/10/15 03:28:01;;;;;;;5.10;1.50;;;;;;;;;;4936082;29;20042;-80
2023/10/15 03:30:46;;;;;;;4.20;1.67;;;;;;;;;;4939498;29;20034;-79
2023/10/15 03:33:35;;;;;;;5.30;1.65;;;;;;;;;;4942215;28;20185;-79
2023/10/15 03:36:24;;;;;;;4.35;1.40;;;;;;;;;;4933629;29;20441;-79
2023/10/15 03:39:16;;;;;;;4.45;1.45;;;;;;;;;;4921128;29;20024;-79
2023/10/15 03:44:59;;;;;;;2.72;1.67;;;;;;;;;;4934561;29;20047;-79
2023/10/15 03:47:47;;;;;;;3.80;1.23;;;;;;;;;;4930940;29;20039;-80
2023/10/15 03:50:35;;;;;;;6.10;1.58;;;;;;;;;;4939737;29;20063;-79
2023/10/15 03:53:28;;;;;;;2.75;1.33;;;;;;;;;;4936850;28;20043;-80
2023/10/15 03:56:17;;;;;;;4.75;1.98;;;;;;;;;;4937055;29;20061;-79
2023/10/15 03:59:05;;;;;;;4.35;1.60;;;;;;;;;;4939563;29;20042;-79
2023/10/15 04:01:51;;;;;;;6.82;2.70;;;;;;;;;;4938744;29;20042;-80
2023/10/15 04:04:36;;;;;;;2.95;1.30;;;;;;;;;;4946711;28;20504;-80
2023/10/15 04:07:23;;;;;;;6.60;1.95;;;;;;;;;;4938415;29;20096;-81
2023/10/15 04:10:08;;;;;;;6.18;2.10;;;;;;;;;;4935816;29;20051;-81
2023/10/15 04:12:54;;;;;;;6.57;2.08;;;;;;;;;;4939230;29;20039;-81
2023/10/15 04:15:39;;;;;;;4.88;2.10;;;;;;;;;;4943635;28;20034;-81
2023/10/15 04:18:24;;;;;;;5.78;1.55;;;;;;;;;;4932942;29;20090;-81
2023/10/15 04:21:10;;;;;;;2.72;1.35;;;;;;;;;;4941109;28;20078;-80
2023/10/15 04:23:56;;;;;;;4.03;1.70;;;;;;;;;;4933718;28;20030;-80
2023/10/15 04:26:48;;;;;;;6.82;2.25;;;;;;;;;;4943999;28;20039;-80
2023/10/15 04:29:35;;;;;;;2.50;1.30;;;;;;;;;;4932585;29;20035;-80
2023/10/15 04:32:44;;;;;;;3.45;1.58;;;;;;;;;;4937124;29;20027;-80
2023/10/15 04:35:29;;;;;;;5.35;1.52;;;;;;;;;;4943635;29;20024;-80
2023/10/15 04:38:28;;;;;;;3.28;1.70;;;;;;;;;;4937995;29;20482;-80
2023/10/15 04:41:21;;;;;;;1.98;1.30;;;;;;;;;;4928165;29;20027;-80
2023/10/15 04:44:31;;;;;;;5.57;1.92;;;;;;;;;;4936564;29;20055;-79
2023/10/15 04:47:25;;;;;;;5.10;1.40;;;;;;;;;;4937613;29;20030;-80
2023/10/15 04:50:16;;;;;;;5.55;1.95;;;;;;;;;;4963394;28;20027;-80
2023/10/15 04:56:05;;;;;;;4.38;1.38;;;;;;;;;;4943429;28;20110;-80
2023/10/15 04:58:50;;;;;;;5.50;1.83;;;;;;;;;;4937590;29;20075;-80
2023/10/15 05:01:35;;;;;;;6.13;1.85;;;;;;;;;;4939305;29;20030;-82
2023/10/15 05:04:20;;;;;;;2.95;1.10;;;;;;;;;;4937184;29;20049;-80
2023/10/15 05:07:06;;;;;;;5.72;1.77;;;;;;;;;;4940610;28;20118;-82
2023/10/15 05:09:51;;;;;;;7.75;1.90;;;;;;;;;;4938030;29;20031;-81
2023/10/15 05:12:36;;;;;;;5.10;1.73;;;;;;;;;;4936173;28;20065;-82
2023/10/15 05:15:21;;;;;;;3.42;1.85;;;;;;;;;;4933686;29;20039;-80
2023/10/15 05:18:06;;;;;;;3.05;1.30;;;;;;;;;;4935661;29;20130;-82
2023/10/15 05:20:52;;;;;;;6.43;1.88;;;;;;;;;;4937108;29;20043;-81
2023/10/15 05:23:37;;;;;;;6.28;1.63;;;;;;;;;;4937834;29;20030;-81
2023/10/15 05:26:23;;;;;;;4.78;1.52;;;;;;;;;;4936602;29;20020;-81
2023/10/15 05:29:08;;;;;;;3.10;1.60;;;;;;;;;;4934440;29;20059;-81
2023/10/15 05:31:54;;;;;;;3.63;1.50;;;;;;;;;;4935987;29;20385;-81
2023/10/15 05:34:39;;;;;;;3.90;1.30;;;;;;;;;;4931378;29;20576;-81
2023/10/15 05:37:25;;;;;;;3.83;1.58;;;;;;;;;;4940556;28;20086;-84
2023/10/15 05:40:15;;;;;;;2.97;1.33;;;;;;;;;;4937560;29;20023;-84
2023/10/15 05:43:00;;;;;;;3.05;1.38;;;;;;;;;;4937754;29;20492;-83
2023/10/15 05:45:47;;;;;;;5.22;2.20;;;;;;;;;;4945098;28;20030;-83
2023/10/15 05:48:32;;;;;;;3.80;1.42;;;;;;;;;;4938713;28;20034;-83
2023/10/15 05:51:17;;;;;;;7.10;1.48;;;;;;;;;;4938749;29;20477;-84
2023/10/15 05:54:04;;;;;;;3.40;1.65;;;;;;;;;;4937957;29;20043;-82
2023/10/15 05:56:49;;;;;;;8.02;3.10;;;;;;;;;;4937215;29;20039;-82
2023/10/15 05:59:35;;;;;;;4.53;1.60;;;;;;;;;;4936043;29;20051;-83
2023/10/15 06:02:20;;;;;;;2.13;1.20;;;;;;;;;;4943372;28;20031;-83
2023/10/15 06:05:06;;;;;;;7.15;1.95;;;;;;;;;;4934164;29;20055;-82
2023/10/15 06:07:51;;;;;;;4.80;1.85;;;;;;;;;;4941170;29;20523;-82
2023/10/15 06:10:36;;;;;;;5.30;1.98;;;;;;;;;;4936633;29;20039;-83
2023/10/15 06:13:21;;;;;;;2.97;1.33;;;;;;;;;;4932000;29;20495;-83
2023/10/15 06:16:07;;;;;;;5.90;1.75;;;;;;;;;;4936767;29;20042;-83
2023/10/15 06:18:52;;;;;;;6.53;1.60;;;;;;;;;;4932801;28;20102;-84
2023/10/15 06:21:37;;;;;;;2.55;1.33;;;;;;;;;;4936469;28;20130;-83
2023/10/15 06:24:23;;;;;;;4.43;1.65;;;;;;;;;;4939556;28;20019;-84
2023/10/15 06:27:10;;;;;;;5.10;2.10;;;;;;;;;;4935465;29;20027;-83
2023/10/15 06:29:55;;;;;;;8.75;2.83;;;;;;;;;;4949134;29;20102;-83
2023/10/15 06:32:44;;;;;;;5.18;2.35;;;;;;;;;;4929387;29;20094;-82
2023/10/15 06:35:32;;;;;;;3.80;1.55;;;;;;;;;;4937624;29;20050;-83
2023/10/15 06:38:17;;;;;;;4.03;1.70;;;;;;;;;;4937879;28;20502;-85
2023/10/15 06:41:04;;;;;;;3.80;1.58;;;;;;;;;;4923686;29;20062;-85
2023/10/15 06:43:50;;;;;;;4.93;1.75;;;;;;;;;;4951438;29;20114;-85
2023/10/15 06:46:38;;;;;;;6.00;1.85;;;;;;;;;;4940255;29;20038;-86
2023/10/15 06:49:24;;;;;;;3.97;1.75;;;;;;;;;;4941424;29;20027;-85
2023/10/15 06:52:10;;;;;;;9.27;2.13;;;;;;;;;;4937409;29;20078;-85
2023/10/15 06:54:55;;;;;;;6.32;1.95;;;;;;;;;;4938203;29;20113;-85
2023/10/15 06:57:40;;;;;;;7.07;2.20;;;;;;;;;;4943790;29;20043;-82
2023/10/15 07:00:27;;;;;;;4.30;1.70;;;;;;;;;;4937418;29;20027;-82
2023/10/15 07:03:15;;;;;;;4.30;1.73;;;;;;;;;;4926892;29;20615;-83
2023/10/15 07:06:00;;;;;;;5.47;2.53;;;;;;;;;;4937807;28;20038;-84
2023/10/15 07:08:45;;;;;;;8.65;2.30;;;;;;;;;;4941320;28;20102;-82
2023/10/15 07:11:30;;;;;;;5.30;1.73;;;;;;;;;;4936797;29;20031;-84
2023/10/15 07:14:16;;;;;;;6.07;2.00;;;;;;;;;;4938217;29;20027;-84
2023/10/15 07:17:04;;;;;;;8.75;2.03;;;;;;;;;;4948550;29;20130;-83
2023/10/15 07:19:49;;;;;;;6.40;2.30;;;;;;;;;;4951896;28;20042;-83
2023/10/15 07:22:37;;;;;;;6.50;1.77;;;;;;;;;;4947983;28;20536;-82
2023/10/15 07:25:24;;;;;;;5.35;2.67;;;;;;;;;;4955394;29;20477;-83
2023/10/15 07:28:10;;;;;;;6.57;2.20;;;;;;;;;;4950704;29;20060;-83
2023/10/15 07:30:55;;;;;;;5.90;1.85;;;;;;;;;;4960726;28;20037;-82
2023/10/15 07:33:40;;;;;;;7.38;2.08;;;;;;;;;;4942228;28;20114;-82
2023/10/15 07:36:26;;;;;;;7.40;2.53;;;;;;;;;;4957436;28;20061;-81
2023/10/15 07:39:11;;;;;;;6.15;2.30;;;;;;;;;;4945661;28;20459;-83
2023/10/15 07:41:58;;;;;;;9.25;2.22;;;;;;;;;;4954567;28;20062;-80
2023/10/15 07:44:43;;;;;;;5.20;1.95;;;;;;;;;;4954793;29;20030;-82
2023/10/15 07:47:29;;;;;;;6.28;2.00;;;;;;;;;;4948864;28;20023;-81
2023/10/15 07:50:18;;;;;;;7.05;2.65;;;;;;;;;;4957154;28;20481;-83
2023/10/15 07:53:03;;;;;;;6.20;2.17;;;;;;;;;;4952544;29;20477;-81
2023/10/15 07:55:49;;;;;;;4.95;2.42;;;;;;;;;;4952010;29;20078;-83
2023/10/15 07:58:35;;;;;;;7.13;2.05;;;;;;;;;;4950675;28;20027;-82
2023/10/15 08:01:20;;;;;;;7.35;2.17;;;;;;;;;;4950611;29;20730;-79
2023/10/15 08:04:09;;;;;;;7.63;2.47;;;;;;;;;;4958774;28;20030;-82
2023/10/15 08:06:54;;;;;;;7.77;2.67;;;;;;;;;;4963188;28;20035;-81
2023/10/15 08:09:40;;;;;;;6.10;2.30;;;;;;;;;;4950670;29;20305;-80
2023/10/15 08:12:27;;;;;;;7.28;2.25;;;;;;;;;;4949883;28;20031;-82
2023/10/15 08:15:13;;;;;;;7.38;2.08;;;;;;;;;;4949740;28;20110;-84
2023/10/15 08:17:58;;;;;;;7.35;2.03;;;;;;;;;;4955612;29;20043;-83
2023/10/15 08:20:44;;;;;;;5.68;2.10;;;;;;;;;;4962178;28;20051;-82
2023/10/15 08:23:30;;;;;;;11.57;2.13;;;;;;;;;;4970986;29;20059;-82
2023/10/15 08:26:15;;;;;;;7.10;2.05;;;;;;;;;;4957325;29;20019;-80
2023/10/15 08:29:00;;;;;;;6.75;2.45;;;;;;;;;;4955189;28;20027;-81
2023/10/15 08:31:49;;;;;;;7.55;1.67;;;;;;;;;;4972613;28;20055;-80
2023/10/15 08:34:34;;;;;;;5.18;1.70;;;;;;;;;;4955726;28;20038;-79
2023/10/15 08:37:20;;;;;;;6.18;1.65;;;;;;;;;;4957830;28;20529;-79
2023/10/15 08:40:06;;;;;;;6.30;2.33;;;;;;;;;;4956184;28;20046;-81
2023/10/15 08:42:56;;;;;;;11.38;2.55;;;;;;;;;;4953850;28;20023;-82
2023/10/15 08:45:43;;;;;;;8.98;1.92;;;;;;;;;;4965742;28;20182;-83
2023/10/15 08:48:28;;;;;;;3.83;1.55;;;;;;;;;;4952110;28;20051;-84
2023/10/15 08:51:20;;;;;;;5.85;1.80;;;;;;;;;;4950239;28;20019;-83
2023/10/15 08:54:07;;;;;;;6.18;2.25;;;;;;;;;;4965983;28;20101;-83
2023/10/15 08:56:54;;;;;;;5.50;1.70;;;;;;;;;;4957356;28;20034;-83
2023/10/15 08:59:43;;;;;;;7.78;2.13;;;;;;;;;;4939721;29;20031;-83
2023/10/15 09:02:30;;;;;;;5.13;1.90;;;;;;;;;;4951600;29;20042;-82
2023/10/15 09:05:16;;;;;;;7.45;2.35;;;;;;;;;;4956277;28;20519;-82
2023/10/15 09:08:06;;;;;;;6.35;1.92;;;;;;;;;;4961707;28;20433;-83
2023/10/15 09:10:52;;;;;;;5.55;1.75;;;;;;;;;;4950806;28;20034;-82
2023/10/15 09:13:37;;;;;;;5.30;2.53;;;;;;;;;;4953712;29;20031;-81
2023/10/15 09:16:26;;;;;;;3.58;1.30;;;;;;;;;;4964135;28;20023;-82
2023/10/15 09:19:12;;;;;;;4.82;1.38;;;;;;;;;;4952746;29;20051;-82
2023/10/15 09:21:57;;;;;;;4.70;1.27;;;;;;;;;;4949472;29;20047;-82
2023/10/15 09:24:46;;;;;;;3.60;1.00;;;;;;;;;;4964875;28;20023;-82
2023/10/15 09:27:31;;;;;;;2.33;1.43;;;;;;;;;;4955193;28;20050;-81
2023/10/15 09:30:20;;;;;;;4.03;1.65;;;;;;;;;;4959327;28;20031;-83
2023/10/15 09:33:12;;;;;;;4.07;1.85;;;;;;;;;;4966900;28;20107;-83
2023/10/15 09:35:57;;;;;;;5.72;1.77;;;;;;;;;;4952671;28;20034;-81
2023/10/15 09:38:43;;;;;;;2.15;1.20;;;;;;;;;;4964055;28;20485;-80
2023/10/15 09:41:28;;;;;;;5.82;1.67;;;;;;;;;;4951676;29;20089;-81
2023/10/15 09:44:17;;;;;;;5.25;1.83;;;;;;;;;;4951777;29;20037;-82
2023/10/15 09:47:02;;;;;;;8.57;1.83;;;;;;;;;;4947675;28;20588;-82
2023/10/15 09:49:48;;;;;;;8.80;2.00;;;;;;;;;;4953798;28;20026;-81
2023/10/15 09:52:34;;;;;;;7.50;2.20;;;;;;;;;;4953965;28;20358;-82
2023/10/15 09:55:23;;;;;;;4.80;1.88;;;;;;;;;;4953183;29;20134;-82
2023/10/15 09:58:10;;;;;;;7.65;2.00;;;;;;;;;;4951390;29;20027;-83
2023/10/15 10:03:47;;;;;;;7.88;1.90;;;;;;;;;;4943585;29;20121;-86
2023/10/15 10:06:48;;;;;;;6.10;1.80;;;;;;;;;;4963532;28;20381;-83
2023/10/15 10:09:46;;;;;;;8.43;1.98;;;;;;;;;;4959992;28;20027;-82
2023/10/15 10:13:07;;;;;;;5.63;2.05;;;;;;;;;;4950833;29;20031;-83
2023/10/15 10:15:57;;;;;;;3.33;1.52;;;;;;;;;;4911794;29;20040;-83
2023/10/15 10:18:43;;;;;;;7.10;1.98;;;;;;;;;;4958463;28;20509;-85
2023/10/15 10:21:29;;;;;;;2.28;1.45;;;;;;;;;;4950137;28;20502;-85
2023/10/15 10:24:17;;;;;;;7.18;1.83;;;;;;;;;;4951918;28;20472;-84
2023/10/15 10:27:12;;;;;;;2.47;1.17;;;;;;;;;;4950427;29;20027;-84
2023/10/15 10:30:18;;;;;;;3.83;1.60;;;;;;;;;;4957966;28;20027;-82
2023/10/15 10:33:03;;;;;;;6.55;1.92;;;;;;;;;;4956264;28;20437;-83
2023/10/15 10:35:49;;;;;;;4.22;1.33;;;;;;;;;;4951553;29;20029;-84
2023/10/15 10:38:34;;;;;;;3.75;1.40;;;;;;;;;;4949860;28;20019;-83
2023/10/15 10:41:20;;;;;;;3.45;1.30;;;;;;;;;;4951201;29;20046;-82
2023/10/15 10:44:06;;;;;;;4.85;1.35;;;;;;;;;;4949358;29;20385;-84
2023/10/15 10:46:57;;;;;;;3.63;1.30;;;;;;;;;;4943291;28;20477;-83
2023/10/15 10:49:50;;;;;;;5.13;2.25;;;;;;;;;;4951851;29;20035;-84
2023/10/15 10:52:36;;;;;;;2.38;1.27;;;;;;;;;;4949928;28;20525;-82
2023/10/15 10:55:31;;;;;;;4.15;1.33;;;;;;;;;;4948906;29;20489;-84
2023/10/15 10:58:26;;;;;;;2.67;1.30;;;;;;;;;;4952754;28;20035;-84
2023/10/15 11:01:13;;;;;;;9.52;1.75;;;;;;;;;;4956114;28;20086;-84
2023/10/15 11:03:59;;;;;;;2.10;1.10;;;;;;;;;;4954819;29;20486;-82
2023/10/15 11:06:48;;;;;;;3.88;1.52;;;;;;;;;;4952402;28;20050;-84
2023/10/15 11:09:37;;;;;;;2.97;1.05;;;;;;;;;;4950157;28;20035;-82
2023/10/15 11:12:22;;;;;;;1.92;1.13;;;;;;;;;;4957488;28;20363;-81
2023/10/15 11:15:08;;;;;;;2.78;1.00;;;;;;;;;;4956385;28;20042;-81
2023/10/15 11:17:54;;;;;;;4.03;1.40;;;;;;;;;;4969562;28;20078;-82
2023/10/15 11:20:39;;;;;;;1.98;1.10;;;;;;;;;;4962381;28;20034;-82
2023/10/15 11:23:26;;;;;;;3.65;1.45;;;;;;;;;;4955693;28;20055;-82
2023/10/15 11:26:11;;;;;;;2.78;1.20;;;;;;;;;;4956018;28;20024;-83
2023/10/15 11:28:57;;;;;;;4.43;1.73;;;;;;;;;;4954146;29;20094;-81
2023/10/15 11:31:44;;;;;;;2.40;1.08;;;;;;;;;;4954470;28;20042;-83
2023/10/15 11:34:31;;;;;;;2.35;1.05;;;;;;;;;;4955777;28;20030;-85
2023/10/15 11:37:17;;;;;;;4.88;1.20;;;;;;;;;;4954568;28;20061;-85
2023/10/15 11:40:04;;;;;;;3.13;1.15;;;;;;;;;;4950291;28;20114;-84
2023/10/15 11:42:52;;;;;;;3.42;1.67;;;;;;;;;;4948361;29;20414;-85
2023/10/15 11:45:38;;;;;;;5.25;1.33;;;;;;;;;;4957480;28;20030;-84
2023/10/15 11:48:24;;;;;;;7.13;2.90;;;;;;;;;;4959636;28;20016;-84
2023/10/15 11:51:09;;;;;;;3.85;1.00;;;;;;;;;;4954872;28;20730;-85
2023/10/15 11:54:01;;;;;;;3.90;1.40;;;;;;;;;;4941545;28;20094;-85
2023/10/15 11:56:47;;;;;;;3.80;1.20;;;;;;;;;;4955003;28;20035;-83
2023/10/15 11:59:32;;;;;;;3.65;1.20;;;;;;;;;;4956428;28;20035;-84
2023/10/15 12:02:17;;;;;;;4.72;1.50;;;;;;;;;;4951735;29;20035;-84
2023/10/15 12:05:09;;;;;;;5.22;1.33;;;;;;;;;;4953410;29;20027;-82
2023/10/15 12:07:54;;;;;;;5.28;1.38;;;;;;;;;;4952736;29;20029;-82
2023/10/15 12:10:45;;;;;;;3.47;1.40;;;;;;;;;;4957263;28;20038;-82
2023/10/15 12:13:30;;;;;;;6.38;2.28;;;;;;;;;;4949559;29;20091;-83
2023/10/15 12:16:16;;;;;;;5.38;1.10;;;;;;;;;;4954812;28;20063;-83
2023/10/15 12:19:01;;;;;;;6.05;1.50;;;;;;;;;;4958011;28;20047;-83
2023/10/15 12:21:46;;;;;;;4.47;1.52;;;;;;;;;;4964417;28;20026;-84
2023/10/15 12:24:35;;;;;;;4.05;1.27;;;;;;;;;;4954782;28;20041;-84
2023/10/15 12:27:20;;;;;;;5.55;1.80;;;;;;;;;;4950379;28;20536;-85
2023/10/15 12:30:07;;;;;;;3.13;1.20;;;;;;;;;;4956893;28;20059;-88
2023/10/15 12:32:58;;;;;;;4.72;1.50;;;;;;;;;;4951431;28;20039;-82
2023/10/15 12:35:47;;;;;;;3.67;1.48;;;;;;;;;;4951444;28;20043;-81
2023/10/15 12:38:32;;;;;;;2.55;1.08;;;;;;;;;;4948873;29;20031;-81
2023/10/15 12:41:21;;;;;;;4.18;1.83;;;;;;;;;;4950261;28;20094;-82
2023/10/15 12:44:10;;;;;;;4.50;1.52;;;;;;;;;;4949135;28;20025;-83
2023/10/15 12:46:55;;;;;;;4.68;1.58;;;;;;;;;;4949799;28;20031;-80
2023/10/15 12:49:41;;;;;;;3.95;1.20;;;;;;;;;;4951509;28;20066;-81
2023/10/15 12:52:26;;;;;;;5.35;1.30;;;;;;;;;;4951965;28;20462;-82
2023/10/15 12:55:12;;;;;;;2.65;1.48;;;;;;;;;;4950740;28;20110;-82
2023/10/15 12:57:57;;;;;;;5.53;1.13;;;;;;;;;;4954559;28;20031;-81
2023/10/15 13:00:48;;;;;;;2.70;1.20;;;;;;;;;;4954909;28;20027;-79
2023/10/15 13:03:34;;;;;;;5.25;1.33;;;;;;;;;;4954083;28;20105;-80
2023/10/15 13:06:22;;;;;;;2.33;1.10;;;;;;;;;;4955742;28;20138;-80
2023/10/15 13:09:18;;;;;;;3.33;1.40;;;;;;;;;;4951723;28;20027;-81
2023/10/15 13:12:06;;;;;;;4.22;1.13;;;;;;;;;;4945180;28;20031;-80
2023/10/15 13:14:52;;;;;;;1.80;1.25;;;;;;;;;;4950717;28;20505;-81
2023/10/15 13:17:40;;;;;;;2.53;1.33;;;;;;;;;;4948219;29;20082;-80
2023/10/15 13:20:25;;;;;;;3.83;1.65;;;;;;;;;;4951423;28;20462;-78
2023/10/15 13:23:10;;;;;;;1.92;1.15;;;;;;;;;;4950385;28;20046;-81
2023/10/15 13:25:56;;;;;;;3.25;1.33;;;;;;;;;;4945449;29;20022;-81
2023/10/15 13:28:43;;;;;;;3.75;1.70;;;;;;;;;;4950861;29;20390;-81
2023/10/15 13:31:30;;;;;;;3.83;1.30;;;;;;;;;;4959911;28;20070;-82
2023/10/15 13:34:15;;;;;;;3.65;1.10;;;;;;;;;;4946951;28;20032;-79
2023/10/15 13:37:03;;;;;;;4.03;1.45;;;;;;;;;;4950272;28;20034;-81
2023/10/15 13:39:50;;;;;;;2.97;1.33;;;;;;;;;;4955127;28;20035;-80
2023/10/15 13:42:39;;;;;;;3.15;1.48;;;;;;;;;;4952125;29;20023;-83
2023/10/15 13:45:25;;;;;;;2.97;1.10;;;;;;;;;;4951158;28;20446;-82
2023/10/15 13:48:10;;;;;;;3.08;1.42;;;;;;;;;;4945713;29;20512;-83
2023/10/15 13:50:56;;;;;;;6.05;1.58;;;;;;;;;;4951220;28;20085;-82
2023/10/15 13:53:43;;;;;;;3.78;1.30;;;;;;;;;;4937885;29;20031;-82
2023/10/15 13:56:28;;;;;;;3.80;1.55;;;;;;;;;;4948574;28;20114;-80
2023/10/15 13:59:14;;;;;;;4.18;1.20;;;;;;;;;;4951119;29;20023;-81
2023/10/15 14:01:59;;;;;;;4.53;1.70;;;;;;;;;;4948899;29;20027;-80
2023/10/15 14:04:44;;;;;;;5.05;1.52;;;;;;;;;;4950874;29;20030;-80
2023/10/15 14:07:29;;;;;;;3.15;1.35;;;;;;;;;;4959369;28;20031;-79
2023/10/15 14:10:16;;;;;;;3.05;1.40;;;;;;;;;;4945834;29;20019;-81
2023/10/15 14:13:01;;;;;;;2.42;0.80;;;;;;;;;;4944571;28;20043;-82
2023/10/15 14:15:47;;;;;;;2.17;0.95;;;;;;;;;;4951941;29;20051;-82
2023/10/15 14:18:33;;;;;;;1.98;0.90;;;;;;;;;;4955660;28;20575;-81
2023/10/15 14:21:19;;;;;;;2.67;1.20;;;;;;;;;;4951708;28;20095;-80
2023/10/15 14:24:05;;;;;;;1.30;1.00;;;;;;;;;;4950970;28;20035;-81
2023/10/15 14:26:51;;;;;;;3.50;1.13;;;;;;;;;;4950972;29;20039;-81
2023/10/15 14:29:36;;;;;;;1.98;1.45;;;;;;;;;;4951599;28;20534;-80
2023/10/15 14:32:22;;;;;;;2.58;1.10;;;;;;;;;;4950750;28;20043;-81
2023/10/15 14:35:10;;;;;;;2.85;1.58;;;;;;;;;;4973190;28;20037;-81
2023/10/15 14:37:55;;;;;;;4.90;1.65;;;;;;;;;;4954633;28;20031;-81
2023/10/15 14:40:42;;;;;;;3.10;1.45;;;;;;;;;;4956526;28;20038;-81
2023/10/15 14:43:27;;;;;;;3.72;1.15;;;;;;;;;;4960857;28;20054;-82
2023/10/15 14:46:12;;;;;;;1.95;1.20;;;;;;;;;;4955042;28;20022;-80
2023/10/15 14:48:58;;;;;;;4.32;1.92;;;;;;;;;;4968567;28;20031;-81
2023/10/15 14:51:43;;;;;;;2.70;1.17;;;;;;;;;;4959510;28;20034;-81
2023/10/15 14:54:28;;;;;;;3.40;1.20;;;;;;;;;;4955410;28;20034;-81
2023/10/15 14:57:15;;;;;;;4.00;1.73;;;;;;;;;;4954121;28;20035;-81
2023/10/15 15:00:04;;;;;;;3.17;1.50;;;;;;;;;;4953477;28;20038;-81
2023/10/15 15:02:49;;;;;;;2.97;1.85;;;;;;;;;;4959437;28;20015;-83
2023/10/15 15:05:35;;;;;;;1.38;0.98;;;;;;;;;;4967884;28;20039;-82
2023/10/15 15:08:21;;;;;;;7.25;1.63;;;;;;;;;;4952406;28;20046;-82
2023/10/15 15:11:06;;;;;;;2.97;1.25;;;;;;;;;;4953173;28;20478;-81
2023/10/15 15:13:52;;;;;;;2.83;1.52;;;;;;;;;;4958902;28;20035;-81
2023/10/15 15:16:37;;;;;;;1.83;1.10;;;;;;;;;;4960630;28;20441;-83
2023/10/15 15:19:23;;;;;;;6.57;1.27;;;;;;;;;;4956680;29;20031;-83
2023/10/15 15:22:09;;;;;;;2.00;1.50;;;;;;;;;;4955215;28;20030;-84
2023/10/15 15:24:54;;;;;;;3.38;1.20;;;;;;;;;;4956230;29;20130;-85
2023/10/15 15:27:41;;;;;;;3.38;1.55;;;;;;;;;;4950806;28;20041;-84
2023/10/15 15:30:26;;;;;;;1.50;1.05;;;;;;;;;;4940903;29;20027;-83
2023/10/15 15:33:13;;;;;;;2.97;1.33;;;;;;;;;;4955646;28;20035;-82
2023/10/15 15:35:58;;;;;;;2.55;1.10;;;;;;;;;;4962501;28;20105;-82
2023/10/15 15:38:44;;;;;;;2.28;0.93;;;;;;;;;;4952758;29;20035;-83
2023/10/15 15:41:32;;;;;;;2.58;1.17;;;;;;;;;;4959261;28;20460;-83
2023/10/15 15:44:21;;;;;;;2.10;1.27;;;;;;;;;;4963215;28;20022;-82
2023/10/15 15:47:08;;;;;;;2.08;0.95;;;;;;;;;;4953957;28;20027;-81
2023/10/15 15:49:53;;;;;;;1.52;1.10;;;;;;;;;;4940063;29;20034;-81
2023/10/15 15:52:40;;;;;;;2.17;1.13;;;;;;;;;;4951056;28;20533;-82
2023/10/15 15:55:28;;;;;;;3.90;1.10;;;;;;;;;;4952473;29;20046;-82
2023/10/15 15:58:15;;;;;;;1.67;1.00;;;;;;;;;;4951094;29;20134;-82
2023/10/15 16:01:00;;;;;;;2.40;1.35;;;;;;;;;;4950818;28;20062;-86
2023/10/15 16:03:46;;;;;;;2.72;0.95;;;;;;;;;;4953435;28;20026;-80
2023/10/15 16:06:31;;;;;;;2.08;1.05;;;;;;;;;;4949478;29;20031;-80
2023/10/15 16:09:16;;;;;;;1.90;1.30;;;;;;;;;;4957258;29;20336;-78
2023/10/15 16:12:02;;;;;;;3.55;1.10;;;;;;;;;;4958684;28;20039;-81
2023/10/15 16:14:47;;;;;;;5.90;1.50;;;;;;;;;;4960558;29;20166;-81
2023/10/15 16:17:32;;;;;;;2.25;1.40;;;;;;;;;;4961229;28;20552;-80
2023/10/15 16:20:18;;;;;;;2.75;1.00;;;;;;;;;;4962727;28;20033;-83
2023/10/15 16:23:03;;;;;;;2.85;1.23;;;;;;;;;;4962173;29;20026;-82
2023/10/15 16:25:48;;;;;;;5.10;1.77;;;;;;;;;;4967248;28;20025;-82
2023/10/15 16:28:34;;;;;;;3.55;1.10;;;;;;;;;;4972129;28;20026;-81
2023/10/15 16:31:19;;;;;;;3.53;1.30;;;;;;;;;;4970340;28;20042;-82
2023/10/15 16:34:04;;;;;;;2.85;1.33;;;;;;;;;;4951902;29;20505;-82
2023/10/15 16:36:52;;;;;;;4.53;2.00;;;;;;;;;;4958321;28;20413;-87
2023/10/15 16:39:47;;;;;;;3.53;1.50;;;;;;;;;;4949183;29;20170;-87
2023/10/15 16:42:32;;;;;;;4.45;1.80;;;;;;;;;;4947512;28;20024;-86
2023/10/15 16:45:18;;;;;;;6.72;1.40;;;;;;;;;;4940744;29;20035;-85
2023/10/15 16:48:04;;;;;;;2.33;1.20;;;;;;;;;;4947778;29;20508;-85
2023/10/15 16:50:51;;;;;;;5.25;1.70;;;;;;;;;;4953992;29;20027;-84
2023/10/15 16:53:36;;;;;;;6.60;2.13;;;;;;;;;;4958196;29;20097;-85
2023/10/15 16:56:21;;;;;;;3.38;2.03;;;;;;;;;;4958347;28;20035;-85
2023/10/15 16:59:07;;;;;;;3.88;1.70;;;;;;;;;;4953094;29;20046;-85